sensor_id;sensor_type;location;lat;lon;timestamp;temperature;humidity
2577;DHT22;1298;51.252;6.802;2023-01-30T00:02:17;3.70;99.90
2577;DHT22;1298;51.252;6.802;2023-01-30T00:05:03;3.70;99.90
2577;DHT22;1298;51.252;6.802;2023-01-30T00:07:49;3.70;99.90
2577;DHT22;1298;51.252;6.802;2023-01-30T00:10:35;3.70;99.90
2577;DHT22;1298;51.252;6.802;2023-01-30T00:13:20;3.70;99.90
2577;DHT22;1298;51.252;6.802;2023-01-30T00:16:06;3.80;99.90
2577;DHT22;1298;51.252;6.802;2023-01-30T00:18:52;3.80;99.90
2577;DHT22;1298;51.252;6.802;2023-01-30T00:21:37;3.80;99.90
2577;DHT22;1298;51.252;6.802;2023-01-30T00:24:23;3.80;99.90
2577;DHT22;1298;51.252;6.802;2023-01-30T00:27:09;3.80;99.90
2577;DHT22;1298;51.252;6.802;2023-01-30T00:29:54;3.90;99.90
2577;DHT22;1298;51.252;6.802;2023-01-30T00:32:39;3.90;99.90
2577;DHT22;1298;51.252;6.802;2023-01-30T00:35:25;3.90;99.90
2577;DHT22;1298;51.252;6.802;2023-01-30T00:38:12;3.90;99.90
2577;DHT22;1298;51.252;6.802;2023-01-30T00:40:58;3.90;99.90
2577;DHT22;1298;51.252;6.802;2023-01-30T00:43:45;4.00;99.90
2577;DHT22;1298;51.252;6.802;2023-01-30T00:46:48;4.00;99.90
2577;DHT22;1298;51.252;6.802;2023-01-30T00:49:51;4.10;99.90
2577;DHT22;1298;51.252;6.802;2023-01-30T00:52:37;4.10;99.90
2577;DHT22;1298;51.252;6.802;2023-01-30T00:55:22;4.10;99.90
2577;DHT22;1298;51.252;6.802;2023-01-30T00:58:07;4.10;99.90
2577;DHT22;1298;51.252;6.802;2023-01-30T01:00:54;4.20;99.90
2577;DHT22;1298;51.252;6.802;2023-01-30T01:03:39;4.20;99.90
2577;DHT22;1298;51.252;6.802;2023-01-30T01:06:24;4.20;99.90
2577;DHT22;1298;51.252;6.802;2023-01-30T01:09:09;4.20;99.90
2577;DHT22;1298;51.252;6.802;2023-01-30T01:11:55;4.20;99.90
2577;DHT22;1298;51.252;6.802;2023-01-30T01:14:40;4.20;99.90
2577;DHT22;1298;51.252;6.802;2023-01-30T01:17:26;4.30;99.90
2577;DHT22;1298;51.252;6.802;2023-01-30T01:20:11;4.30;99.90
2577;DHT22;1298;51.252;6.802;2023-01-30T01:22:57;4.30;99.90
2577;DHT22;1298;51.252;6.802;2023-01-30T01:25:42;4.30;99.90
2577;DHT22;1298;51.252;6.802;2023-01-30T01:28:27;4.40;99.90
2577;DHT22;1298;51.252;6.802;2023-01-30T01:31:13;4.40;99.90
2577;DHT22;1298;51.252;6.802;2023-01-30T01:34:00;4.40;99.90
2577;DHT22;1298;51.252;6.802;2023-01-30T01:36:47;4.50;99.90
2577;DHT22;1298;51.252;6.802;2023-01-30T01:39:32;4.50;99.90
2577;DHT22;1298;51.252;6.802;2023-01-30T01:42:33;4.50;99.90
2577;DHT22;1298;51.252;6.802;2023-01-30T01:45:19;4.60;99.90
2577;DHT22;1298;51.252;6.802;2023-01-30T01:48:07;4.60;99.90
2577;DHT22;1298;51.252;6.802;2023-01-30T01:50:57;4.60;99.90
2577;DHT22;1298;51.252;6.802;2023-01-30T01:53:44;4.60;99.90
2577;DHT22;1298;51.252;6.802;2023-01-30T01:56:31;4.60;99.90
2577;DHT22;1298;51.252;6.802;2023-01-30T01:59:19;4.60;99.90
2577;DHT22;1298;51.252;6.802;2023-01-30T02:02:07;4.60;99.90
2577;DHT22;1298;51.252;6.802;2023-01-30T02:04:54;4.70;99.90
2577;DHT22;1298;51.252;6.802;2023-01-30T02:07:49;4.60;99.90
2577;DHT22;1298;51.252;6.802;2023-01-30T02:10:39;4.60;99.90
2577;DHT22;1298;51.252;6.802;2023-01-30T02:13:25;4.60;99.90
2577;DHT22;1298;51.252;6.802;2023-01-30T02:16:11;4.60;99.90
2577;DHT22;1298;51.252;6.802;2023-01-30T02:18:57;4.60;99.90
2577;DHT22;1298;51.252;6.802;2023-01-30T02:21:53;4.60;99.90
2577;DHT22;1298;51.252;6.802;2023-01-30T02:28:08;4.70;99.90
2577;DHT22;1298;51.252;6.802;2023-01-30T02:31:07;4.70;99.90
2577;DHT22;1298;51.252;6.802;2023-01-30T02:33:56;4.70;99.90
2577;DHT22;1298;51.252;6.802;2023-01-30T02:36:47;4.70;99.90
2577;DHT22;1298;51.252;6.802;2023-01-30T02:39:37;4.70;99.90
2577;DHT22;1298;51.252;6.802;2023-01-30T02:42:25;4.70;99.90
2577;DHT22;1298;51.252;6.802;2023-01-30T02:45:15;4.70;99.90
2577;DHT22;1298;51.252;6.802;2023-01-30T02:48:06;4.70;99.90
2577;DHT22;1298;51.252;6.802;2023-01-30T02:50:54;4.80;99.90
2577;DHT22;1298;51.252;6.802;2023-01-30T02:53:41;4.80;99.90
2577;DHT22;1298;51.252;6.802;2023-01-30T02:56:26;4.80;99.90
2577;DHT22;1298;51.252;6.802;2023-01-30T03:02:19;4.90;99.90
2577;DHT22;1298;51.252;6.802;2023-01-30T03:05:15;4.90;99.90
2577;DHT22;1298;51.252;6.802;2023-01-30T03:08:07;4.90;99.90
2577;DHT22;1298;51.252;6.802;2023-01-30T03:10:57;4.90;99.90
2577;DHT22;1298;51.252;6.802;2023-01-30T03:13:47;4.90;99.90
2577;DHT22;1298;51.252;6.802;2023-01-30T03:16:34;5.00;99.90
2577;DHT22;1298;51.252;6.802;2023-01-30T03:19:20;5.00;99.90
2577;DHT22;1298;51.252;6.802;2023-01-30T03:22:07;5.00;99.90
2577;DHT22;1298;51.252;6.802;2023-01-30T03:24:52;5.00;99.90
2577;DHT22;1298;51.252;6.802;2023-01-30T03:27:38;5.00;99.90
2577;DHT22;1298;51.252;6.802;2023-01-30T03:30:24;5.00;99.90
2577;DHT22;1298;51.252;6.802;2023-01-30T03:33:10;5.00;99.90
2577;DHT22;1298;51.252;6.802;2023-01-30T03:35:55;5.00;99.90
2577;DHT22;1298;51.252;6.802;2023-01-30T03:38:42;5.10;99.90
2577;DHT22;1298;51.252;6.802;2023-01-30T03:41:27;5.10;99.90
2577;DHT22;1298;51.252;6.802;2023-01-30T03:44:13;5.10;99.90
2577;DHT22;1298;51.252;6.802;2023-01-30T03:47:00;5.10;99.90
2577;DHT22;1298;51.252;6.802;2023-01-30T03:49:45;5.20;99.90
2577;DHT22;1298;51.252;6.802;2023-01-30T03:52:31;5.10;99.90
2577;DHT22;1298;51.252;6.802;2023-01-30T03:55:19;5.10;99.90
2577;DHT22;1298;51.252;6.802;2023-01-30T03:58:04;5.10;99.90
2577;DHT22;1298;51.252;6.802;2023-01-30T04:00:50;5.10;99.90
2577;DHT22;1298;51.252;6.802;2023-01-30T04:03:35;5.10;99.90
2577;DHT22;1298;51.252;6.802;2023-01-30T04:06:20;5.10;99.90
2577;DHT22;1298;51.252;6.802;2023-01-30T04:09:05;5.10;99.90
2577;DHT22;1298;51.252;6.802;2023-01-30T04:11:52;5.10;99.90
2577;DHT22;1298;51.252;6.802;2023-01-30T04:14:37;5.10;99.90
2577;DHT22;1298;51.252;6.802;2023-01-30T04:17:22;5.10;99.90
2577;DHT22;1298;51.252;6.802;2023-01-30T04:20:08;5.10;99.90
2577;DHT22;1298;51.252;6.802;2023-01-30T04:22:53;5.20;99.90
2577;DHT22;1298;51.252;6.802;2023-01-30T04:25:40;5.20;99.90
2577;DHT22;1298;51.252;6.802;2023-01-30T04:28:27;5.20;99.90
2577;DHT22;1298;51.252;6.802;2023-01-30T04:31:12;5.20;99.90
2577;DHT22;1298;51.252;6.802;2023-01-30T04:33:57;5.20;99.90
2577;DHT22;1298;51.252;6.802;2023-01-30T04:36:42;5.20;99.90
2577;DHT22;1298;51.252;6.802;2023-01-30T04:39:27;5.20;99.90
2577;DHT22;1298;51.252;6.802;2023-01-30T04:42:12;5.20;99.90
2577;DHT22;1298;51.252;6.802;2023-01-30T04:44:59;5.20;99.90
2577;DHT22;1298;51.252;6.802;2023-01-30T04:47:44;5.20;99.90
2577;DHT22;1298;51.252;6.802;2023-01-30T04:50:29;5.20;99.90
2577;DHT22;1298;51.252;6.802;2023-01-30T04:53:15;5.20;99.90
2577;DHT22;1298;51.252;6.802;2023-01-30T04:56:01;5.20;99.90
2577;DHT22;1298;51.252;6.802;2023-01-30T04:58:46;5.10;99.90
2577;DHT22;1298;51.252;6.802;2023-01-30T05:01:33;5.20;99.90
2577;DHT22;1298;51.252;6.802;2023-01-30T05:04:18;5.10;99.90
2577;DHT22;1298;51.252;6.802;2023-01-30T05:07:04;5.10;99.90
2577;DHT22;1298;51.252;6.802;2023-01-30T05:09:49;5.10;99.90
2577;DHT22;1298;51.252;6.802;2023-01-30T05:12:34;5.10;99.90
2577;DHT22;1298;51.252;6.802;2023-01-30T05:15:20;5.10;99.90
2577;DHT22;1298;51.252;6.802;2023-01-30T05:18:07;5.10;99.90
2577;DHT22;1298;51.252;6.802;2023-01-30T05:20:53;5.10;99.90
2577;DHT22;1298;51.252;6.802;2023-01-30T05:23:38;5.10;99.90
2577;DHT22;1298;51.252;6.802;2023-01-30T05:26:24;5.10;99.90
2577;DHT22;1298;51.252;6.802;2023-01-30T05:29:09;5.20;99.90
2577;DHT22;1298;51.252;6.802;2023-01-30T05:31:54;5.10;99.90
2577;DHT22;1298;51.252;6.802;2023-01-30T05:34:41;5.20;99.90
2577;DHT22;1298;51.252;6.802;2023-01-30T05:37:26;5.20;99.90
2577;DHT22;1298;51.252;6.802;2023-01-30T05:40:11;5.20;99.90
2577;DHT22;1298;51.252;6.802;2023-01-30T05:42:57;5.20;99.90
2577;DHT22;1298;51.252;6.802;2023-01-30T05:45:43;5.20;99.90
2577;DHT22;1298;51.252;6.802;2023-01-30T05:48:28;5.30;99.90
2577;DHT22;1298;51.252;6.802;2023-01-30T05:51:16;5.30;99.90
2577;DHT22;1298;51.252;6.802;2023-01-30T05:54:02;5.40;99.90
2577;DHT22;1298;51.252;6.802;2023-01-30T05:56:47;5.40;99.90
2577;DHT22;1298;51.252;6.802;2023-01-30T05:59:32;5.40;99.90
2577;DHT22;1298;51.252;6.802;2023-01-30T06:02:18;5.40;99.90
2577;DHT22;1298;51.252;6.802;2023-01-30T06:05:03;5.40;99.90
2577;DHT22;1298;51.252;6.802;2023-01-30T06:07:50;5.50;99.90
2577;DHT22;1298;51.252;6.802;2023-01-30T06:10:35;5.50;99.90
2577;DHT22;1298;51.252;6.802;2023-01-30T06:13:21;5.50;99.90
2577;DHT22;1298;51.252;6.802;2023-01-30T06:16:06;5.50;99.90
2577;DHT22;1298;51.252;6.802;2023-01-30T06:18:52;5.60;99.90
2577;DHT22;1298;51.252;6.802;2023-01-30T06:21:37;5.60;99.90
2577;DHT22;1298;51.252;6.802;2023-01-30T06:24:23;5.70;99.90
2577;DHT22;1298;51.252;6.802;2023-01-30T06:27:09;5.70;99.90
2577;DHT22;1298;51.252;6.802;2023-01-30T06:29:54;5.80;99.90
2577;DHT22;1298;51.252;6.802;2023-01-30T06:32:39;5.70;99.90
2577;DHT22;1298;51.252;6.802;2023-01-30T06:35:25;5.70;99.90
2577;DHT22;1298;51.252;6.802;2023-01-30T06:38:11;5.80;99.90
2577;DHT22;1298;51.252;6.802;2023-01-30T06:40:58;5.80;99.90
2577;DHT22;1298;51.252;6.802;2023-01-30T06:43:44;5.90;99.90
2577;DHT22;1298;51.252;6.802;2023-01-30T06:46:29;5.90;99.90
2577;DHT22;1298;51.252;6.802;2023-01-30T06:49:15;5.90;99.90
2577;DHT22;1298;51.252;6.802;2023-01-30T06:52:00;5.90;99.90
2577;DHT22;1298;51.252;6.802;2023-01-30T06:54:45;6.00;99.90
2577;DHT22;1298;51.252;6.802;2023-01-30T06:57:31;6.00;99.90
2577;DHT22;1298;51.252;6.802;2023-01-30T07:00:18;6.00;99.90
2577;DHT22;1298;51.252;6.802;2023-01-30T07:03:03;6.00;99.90
2577;DHT22;1298;51.252;6.802;2023-01-30T07:05:48;6.10;99.90
2577;DHT22;1298;51.252;6.802;2023-01-30T07:08:33;6.10;99.90
2577;DHT22;1298;51.252;6.802;2023-01-30T07:11:18;6.10;99.90
2577;DHT22;1298;51.252;6.802;2023-01-30T07:14:05;6.10;99.90
2577;DHT22;1298;51.252;6.802;2023-01-30T07:16:50;6.10;99.90
2577;DHT22;1298;51.252;6.802;2023-01-30T07:19:36;6.20;99.90
2577;DHT22;1298;51.252;6.802;2023-01-30T07:22:22;6.20;99.90
2577;DHT22;1298;51.252;6.802;2023-01-30T07:25:07;6.20;99.90
2577;DHT22;1298;51.252;6.802;2023-01-30T07:27:53;6.20;99.90
2577;DHT22;1298;51.252;6.802;2023-01-30T07:30:40;6.30;99.90
2577;DHT22;1298;51.252;6.802;2023-01-30T07:33:26;6.20;99.90
2577;DHT22;1298;51.252;6.802;2023-01-30T07:36:11;6.30;99.90
2577;DHT22;1298;51.252;6.802;2023-01-30T07:38:56;6.30;99.90
2577;DHT22;1298;51.252;6.802;2023-01-30T07:41:42;6.30;99.90
2577;DHT22;1298;51.252;6.802;2023-01-30T07:44:27;6.40;99.90
2577;DHT22;1298;51.252;6.802;2023-01-30T07:47:13;6.40;99.90
2577;DHT22;1298;51.252;6.802;2023-01-30T07:49:59;6.40;99.90
2577;DHT22;1298;51.252;6.802;2023-01-30T07:52:44;6.40;99.90
2577;DHT22;1298;51.252;6.802;2023-01-30T07:55:29;6.50;99.90
2577;DHT22;1298;51.252;6.802;2023-01-30T07:58:14;6.50;99.90
2577;DHT22;1298;51.252;6.802;2023-01-30T08:01:00;6.50;99.90
2577;DHT22;1298;51.252;6.802;2023-01-30T08:03:46;6.50;99.90
2577;DHT22;1298;51.252;6.802;2023-01-30T08:06:32;6.50;99.90
2577;DHT22;1298;51.252;6.802;2023-01-30T08:09:21;6.50;99.90
2577;DHT22;1298;51.252;6.802;2023-01-30T08:12:07;6.50;99.90
2577;DHT22;1298;51.252;6.802;2023-01-30T08:14:51;6.50;99.90
2577;DHT22;1298;51.252;6.802;2023-01-30T08:17:37;6.50;99.90
2577;DHT22;1298;51.252;6.802;2023-01-30T08:20:23;6.50;99.90
2577;DHT22;1298;51.252;6.802;2023-01-30T08:23:09;6.50;99.90
2577;DHT22;1298;51.252;6.802;2023-01-30T08:25:54;6.50;99.90
2577;DHT22;1298;51.252;6.802;2023-01-30T08:28:39;6.50;99.90
2577;DHT22;1298;51.252;6.802;2023-01-30T08:31:24;6.60;99.90
2577;DHT22;1298;51.252;6.802;2023-01-30T08:34:09;6.60;99.90
2577;DHT22;1298;51.252;6.802;2023-01-30T08:36:56;6.60;99.90
2577;DHT22;1298;51.252;6.802;2023-01-30T08:39:41;6.60;99.90
2577;DHT22;1298;51.252;6.802;2023-01-30T08:42:26;6.70;99.90
2577;DHT22;1298;51.252;6.802;2023-01-30T08:45:12;6.80;99.90
2577;DHT22;1298;51.252;6.802;2023-01-30T08:47:57;6.80;99.90
2577;DHT22;1298;51.252;6.802;2023-01-30T08:50:42;6.80;99.90
2577;DHT22;1298;51.252;6.802;2023-01-30T08:53:29;6.80;99.90
2577;DHT22;1298;51.252;6.802;2023-01-30T08:56:14;6.80;99.90
2577;DHT22;1298;51.252;6.802;2023-01-30T08:58:59;6.80;99.90
2577;DHT22;1298;51.252;6.802;2023-01-30T09:01:44;6.90;99.90
2577;DHT22;1298;51.252;6.802;2023-01-30T09:04:29;7.00;99.90
2577;DHT22;1298;51.252;6.802;2023-01-30T09:07:15;7.00;99.90
2577;DHT22;1298;51.252;6.802;2023-01-30T09:10:02;7.00;99.90
2577;DHT22;1298;51.252;6.802;2023-01-30T09:12:47;7.00;99.90
2577;DHT22;1298;51.252;6.802;2023-01-30T09:15:32;7.10;99.90
2577;DHT22;1298;51.252;6.802;2023-01-30T09:18:17;7.10;99.90
2577;DHT22;1298;51.252;6.802;2023-01-30T09:21:03;7.10;99.90
2577;DHT22;1298;51.252;6.802;2023-01-30T09:23:48;7.10;99.90
2577;DHT22;1298;51.252;6.802;2023-01-30T09:26:35;7.10;99.90
2577;DHT22;1298;51.252;6.802;2023-01-30T09:29:20;7.10;99.90
2577;DHT22;1298;51.252;6.802;2023-01-30T09:32:05;7.10;99.90
2577;DHT22;1298;51.252;6.802;2023-01-30T09:34:50;7.10;99.90
2577;DHT22;1298;51.252;6.802;2023-01-30T09:37:35;7.10;99.90
2577;DHT22;1298;51.252;6.802;2023-01-30T09:40:21;7.20;99.90
2577;DHT22;1298;51.252;6.802;2023-01-30T09:43:12;7.20;99.90
2577;DHT22;1298;51.252;6.802;2023-01-30T09:46:03;7.20;99.90
2577;DHT22;1298;51.252;6.802;2023-01-30T09:48:54;7.20;99.90
2577;DHT22;1298;51.252;6.802;2023-01-30T09:51:42;7.30;99.90
2577;DHT22;1298;51.252;6.802;2023-01-30T09:54:29;7.30;99.90
2577;DHT22;1298;51.252;6.802;2023-01-30T09:57:17;7.40;99.90
2577;DHT22;1298;51.252;6.802;2023-01-30T10:00:05;7.50;99.90
2577;DHT22;1298;51.252;6.802;2023-01-30T10:02:56;7.50;99.90
2577;DHT22;1298;51.252;6.802;2023-01-30T10:05:44;7.50;99.90
2577;DHT22;1298;51.252;6.802;2023-01-30T10:08:37;7.50;99.90
2577;DHT22;1298;51.252;6.802;2023-01-30T10:11:28;7.50;99.90
2577;DHT22;1298;51.252;6.802;2023-01-30T10:14:23;7.40;99.90
2577;DHT22;1298;51.252;6.802;2023-01-30T10:17:19;7.40;99.90
2577;DHT22;1298;51.252;6.802;2023-01-30T10:20:20;7.40;99.90
2577;DHT22;1298;51.252;6.802;2023-01-30T10:23:14;7.40;99.90
2577;DHT22;1298;51.252;6.802;2023-01-30T10:26:02;7.40;99.90
2577;DHT22;1298;51.252;6.802;2023-01-30T10:28:52;7.40;99.90
2577;DHT22;1298;51.252;6.802;2023-01-30T10:31:39;7.30;99.90
2577;DHT22;1298;51.252;6.802;2023-01-30T10:34:28;7.30;99.90
2577;DHT22;1298;51.252;6.802;2023-01-30T10:37:17;7.30;99.90
2577;DHT22;1298;51.252;6.802;2023-01-30T10:40:07;7.30;99.90
2577;DHT22;1298;51.252;6.802;2023-01-30T10:43:00;7.30;99.90
2577;DHT22;1298;51.252;6.802;2023-01-30T10:45:49;7.30;99.90
2577;DHT22;1298;51.252;6.802;2023-01-30T10:48:50;7.30;99.90
2577;DHT22;1298;51.252;6.802;2023-01-30T10:51:40;7.30;99.90
2577;DHT22;1298;51.252;6.802;2023-01-30T10:54:31;7.30;99.90
2577;DHT22;1298;51.252;6.802;2023-01-30T10:57:21;7.40;99.90
2577;DHT22;1298;51.252;6.802;2023-01-30T11:00:11;7.40;99.90
2577;DHT22;1298;51.252;6.802;2023-01-30T11:06:04;7.40;99.90
2577;DHT22;1298;51.252;6.802;2023-01-30T11:08:51;7.40;99.90
2577;DHT22;1298;51.252;6.802;2023-01-30T11:11:41;7.40;99.90
2577;DHT22;1298;51.252;6.802;2023-01-30T11:14:26;7.40;99.90
2577;DHT22;1298;51.252;6.802;2023-01-30T11:17:13;7.40;99.90
2577;DHT22;1298;51.252;6.802;2023-01-30T11:20:01;7.50;99.90
2577;DHT22;1298;51.252;6.802;2023-01-30T11:22:48;7.50;99.90
2577;DHT22;1298;51.252;6.802;2023-01-30T11:25:46;7.60;99.90
2577;DHT22;1298;51.252;6.802;2023-01-30T11:28:37;7.60;99.90
2577;DHT22;1298;51.252;6.802;2023-01-30T11:31:25;7.60;99.90
2577;DHT22;1298;51.252;6.802;2023-01-30T11:34:12;7.60;99.90
2577;DHT22;1298;51.252;6.802;2023-01-30T11:37:11;7.60;99.90
2577;DHT22;1298;51.252;6.802;2023-01-30T11:39:57;7.60;99.90
2577;DHT22;1298;51.252;6.802;2023-01-30T11:42:48;7.60;99.90
2577;DHT22;1298;51.252;6.802;2023-01-30T11:45:34;7.60;99.90
2577;DHT22;1298;51.252;6.802;2023-01-30T11:48:20;7.70;99.90
2577;DHT22;1298;51.252;6.802;2023-01-30T11:51:06;7.70;99.90
2577;DHT22;1298;51.252;6.802;2023-01-30T11:53:55;7.60;99.90
2577;DHT22;1298;51.252;6.802;2023-01-30T11:56:44;7.60;99.90
2577;DHT22;1298;51.252;6.802;2023-01-30T11:59:34;7.70;99.90
2577;DHT22;1298;51.252;6.802;2023-01-30T12:02:22;7.60;99.90
2577;DHT22;1298;51.252;6.802;2023-01-30T12:05:15;7.60;99.90
2577;DHT22;1298;51.252;6.802;2023-01-30T12:08:10;7.60;99.90
2577;DHT22;1298;51.252;6.802;2023-01-30T12:10:56;7.60;99.90
2577;DHT22;1298;51.252;6.802;2023-01-30T12:13:44;7.60;99.90
2577;DHT22;1298;51.252;6.802;2023-01-30T12:16:34;7.60;99.90
2577;DHT22;1298;51.252;6.802;2023-01-30T12:19:26;7.60;99.90
2577;DHT22;1298;51.252;6.802;2023-01-30T12:22:17;7.70;99.90
2577;DHT22;1298;51.252;6.802;2023-01-30T12:25:08;7.80;99.90
2577;DHT22;1298;51.252;6.802;2023-01-30T12:27:56;7.80;99.90
2577;DHT22;1298;51.252;6.802;2023-01-30T12:30:44;7.80;99.90
2577;DHT22;1298;51.252;6.802;2023-01-30T12:33:32;7.90;99.90
2577;DHT22;1298;51.252;6.802;2023-01-30T12:36:21;7.90;99.90
2577;DHT22;1298;51.252;6.802;2023-01-30T12:39:12;8.00;99.90
2577;DHT22;1298;51.252;6.802;2023-01-30T12:42:06;8.10;99.90
2577;DHT22;1298;51.252;6.802;2023-01-30T12:44:59;8.10;99.90
2577;DHT22;1298;51.252;6.802;2023-01-30T12:47:51;8.10;99.90
2577;DHT22;1298;51.252;6.802;2023-01-30T12:50:45;8.20;99.90
2577;DHT22;1298;51.252;6.802;2023-01-30T12:53:35;8.00;99.90
2577;DHT22;1298;51.252;6.802;2023-01-30T12:56:31;8.10;99.90
2577;DHT22;1298;51.252;6.802;2023-01-30T12:59:22;8.10;99.90
2577;DHT22;1298;51.252;6.802;2023-01-30T13:02:16;8.20;99.90
2577;DHT22;1298;51.252;6.802;2023-01-30T13:05:14;8.10;99.90
2577;DHT22;1298;51.252;6.802;2023-01-30T13:11:13;8.20;99.90
2577;DHT22;1298;51.252;6.802;2023-01-30T13:14:04;8.20;99.90
2577;DHT22;1298;51.252;6.802;2023-01-30T13:16:58;8.10;99.90
2577;DHT22;1298;51.252;6.802;2023-01-30T13:19:48;8.10;99.90
2577;DHT22;1298;51.252;6.802;2023-01-30T13:22:38;8.10;99.90
2577;DHT22;1298;51.252;6.802;2023-01-30T13:25:26;8.10;99.90
2577;DHT22;1298;51.252;6.802;2023-01-30T13:28:16;8.00;99.90
2577;DHT22;1298;51.252;6.802;2023-01-30T13:31:03;8.00;99.90
2577;DHT22;1298;51.252;6.802;2023-01-30T13:33:51;8.10;99.90
2577;DHT22;1298;51.252;6.802;2023-01-30T13:36:41;8.10;99.90
2577;DHT22;1298;51.252;6.802;2023-01-30T13:39:31;8.10;99.90
2577;DHT22;1298;51.252;6.802;2023-01-30T13:42:23;8.10;99.90
2577;DHT22;1298;51.252;6.802;2023-01-30T13:45:13;8.20;99.90
2577;DHT22;1298;51.252;6.802;2023-01-30T13:48:04;8.20;99.90
2577;DHT22;1298;51.252;6.802;2023-01-30T13:50:56;8.20;99.90
2577;DHT22;1298;51.252;6.802;2023-01-30T13:53:45;8.20;99.90
2577;DHT22;1298;51.252;6.802;2023-01-30T13:56:36;8.20;99.90
2577;DHT22;1298;51.252;6.802;2023-01-30T13:59:26;8.20;99.90
2577;DHT22;1298;51.252;6.802;2023-01-30T14:02:19;8.20;99.90
2577;DHT22;1298;51.252;6.802;2023-01-30T14:05:06;8.30;99.90
2577;DHT22;1298;51.252;6.802;2023-01-30T14:07:53;8.40;99.90
2577;DHT22;1298;51.252;6.802;2023-01-30T14:10:40;8.40;99.90
2577;DHT22;1298;51.252;6.802;2023-01-30T14:13:25;8.50;99.90
2577;DHT22;1298;51.252;6.802;2023-01-30T14:16:10;8.50;99.90
2577;DHT22;1298;51.252;6.802;2023-01-30T14:18:57;8.50;99.90
2577;DHT22;1298;51.252;6.802;2023-01-30T14:21:52;8.60;99.90
2577;DHT22;1298;51.252;6.802;2023-01-30T14:24:38;8.70;99.90
2577;DHT22;1298;51.252;6.802;2023-01-30T14:27:28;8.60;99.90
2577;DHT22;1298;51.252;6.802;2023-01-30T14:30:34;8.40;99.90
2577;DHT22;1298;51.252;6.802;2023-01-30T14:33:30;8.30;99.90
2577;DHT22;1298;51.252;6.802;2023-01-30T14:36:32;8.40;99.90
2577;DHT22;1298;51.252;6.802;2023-01-30T14:39:35;8.40;99.90
2577;DHT22;1298;51.252;6.802;2023-01-30T14:42:22;8.30;99.90
2577;DHT22;1298;51.252;6.802;2023-01-30T14:45:12;8.00;99.90
2577;DHT22;1298;51.252;6.802;2023-01-30T14:51:18;7.80;99.90
2577;DHT22;1298;51.252;6.802;2023-01-30T14:54:08;7.90;99.90
2577;DHT22;1298;51.252;6.802;2023-01-30T14:57:02;7.90;99.90
2577;DHT22;1298;51.252;6.802;2023-01-30T14:59:50;7.90;99.90
2577;DHT22;1298;51.252;6.802;2023-01-30T15:02:41;7.90;99.90
2577;DHT22;1298;51.252;6.802;2023-01-30T15:05:30;7.90;99.90
2577;DHT22;1298;51.252;6.802;2023-01-30T15:08:17;7.90;99.90
2577;DHT22;1298;51.252;6.802;2023-01-30T15:11:06;7.90;99.90
2577;DHT22;1298;51.252;6.802;2023-01-30T15:13:54;8.00;99.90
2577;DHT22;1298;51.252;6.802;2023-01-30T15:16:55;7.90;99.90
2577;DHT22;1298;51.252;6.802;2023-01-30T15:19:51;7.80;99.90
2577;DHT22;1298;51.252;6.802;2023-01-30T15:22:43;7.80;99.90
2577;DHT22;1298;51.252;6.802;2023-01-30T15:25:32;7.80;99.90
2577;DHT22;1298;51.252;6.802;2023-01-30T15:28:26;7.80;99.90
2577;DHT22;1298;51.252;6.802;2023-01-30T15:31:16;7.70;99.90
2577;DHT22;1298;51.252;6.802;2023-01-30T15:34:02;7.60;99.90
2577;DHT22;1298;51.252;6.802;2023-01-30T15:36:49;7.70;99.90
2577;DHT22;1298;51.252;6.802;2023-01-30T15:39:34;7.70;99.90
2577;DHT22;1298;51.252;6.802;2023-01-30T15:42:19;7.60;99.90
2577;DHT22;1298;51.252;6.802;2023-01-30T15:45:07;7.60;99.90
2577;DHT22;1298;51.252;6.802;2023-01-30T15:48:06;7.50;99.90
2577;DHT22;1298;51.252;6.802;2023-01-30T15:50:55;7.60;99.90
2577;DHT22;1298;51.252;6.802;2023-01-30T15:53:44;7.60;99.90
2577;DHT22;1298;51.252;6.802;2023-01-30T15:56:30;7.50;99.90
2577;DHT22;1298;51.252;6.802;2023-01-30T15:59:22;7.40;99.90
2577;DHT22;1298;51.252;6.802;2023-01-30T16:02:17;7.40;99.90
2577;DHT22;1298;51.252;6.802;2023-01-30T16:05:05;7.30;99.90
2577;DHT22;1298;51.252;6.802;2023-01-30T16:07:51;7.40;99.90
2577;DHT22;1298;51.252;6.802;2023-01-30T16:10:42;7.40;99.90
2577;DHT22;1298;51.252;6.802;2023-01-30T16:13:28;7.30;99.90
2577;DHT22;1298;51.252;6.802;2023-01-30T16:16:16;7.30;99.90
2577;DHT22;1298;51.252;6.802;2023-01-30T16:19:05;7.30;99.90
2577;DHT22;1298;51.252;6.802;2023-01-30T16:21:52;7.30;99.90
2577;DHT22;1298;51.252;6.802;2023-01-30T16:24:41;7.30;99.90
2577;DHT22;1298;51.252;6.802;2023-01-30T16:27:29;7.20;99.90
2577;DHT22;1298;51.252;6.802;2023-01-30T16:30:18;7.20;99.90
2577;DHT22;1298;51.252;6.802;2023-01-30T16:33:05;7.20;99.90
2577;DHT22;1298;51.252;6.802;2023-01-30T16:35:54;7.20;99.90
2577;DHT22;1298;51.252;6.802;2023-01-30T16:38:40;7.30;99.90
2577;DHT22;1298;51.252;6.802;2023-01-30T16:41:28;7.30;99.90
2577;DHT22;1298;51.252;6.802;2023-01-30T16:44:17;7.30;99.90
2577;DHT22;1298;51.252;6.802;2023-01-30T16:47:03;7.20;99.90
2577;DHT22;1298;51.252;6.802;2023-01-30T16:49:49;7.30;99.90
2577;DHT22;1298;51.252;6.802;2023-01-30T16:52:43;7.20;99.90
2577;DHT22;1298;51.252;6.802;2023-01-30T16:55:28;7.20;99.90
2577;DHT22;1298;51.252;6.802;2023-01-30T16:58:14;7.20;99.90
2577;DHT22;1298;51.252;6.802;2023-01-30T17:01:01;7.20;99.90
2577;DHT22;1298;51.252;6.802;2023-01-30T17:03:54;7.20;99.90
2577;DHT22;1298;51.252;6.802;2023-01-30T17:06:41;7.20;99.90
2577;DHT22;1298;51.252;6.802;2023-01-30T17:09:33;7.20;99.90
2577;DHT22;1298;51.252;6.802;2023-01-30T17:12:41;7.20;99.90
2577;DHT22;1298;51.252;6.802;2023-01-30T17:15:33;7.20;99.90
2577;DHT22;1298;51.252;6.802;2023-01-30T17:18:19;7.20;99.90
2577;DHT22;1298;51.252;6.802;2023-01-30T17:21:04;7.20;99.90
2577;DHT22;1298;51.252;6.802;2023-01-30T17:23:52;7.20;99.90
2577;DHT22;1298;51.252;6.802;2023-01-30T17:26:39;7.20;99.90
2577;DHT22;1298;51.252;6.802;2023-01-30T17:29:24;7.20;99.90
2577;DHT22;1298;51.252;6.802;2023-01-30T17:32:11;7.20;99.90
2577;DHT22;1298;51.252;6.802;2023-01-30T17:34:57;7.20;99.90
2577;DHT22;1298;51.252;6.802;2023-01-30T17:37:43;7.20;99.90
2577;DHT22;1298;51.252;6.802;2023-01-30T17:40:35;7.20;99.90
2577;DHT22;1298;51.252;6.802;2023-01-30T17:43:22;7.20;99.90
2577;DHT22;1298;51.252;6.802;2023-01-30T17:46:07;7.20;99.90
2577;DHT22;1298;51.252;6.802;2023-01-30T17:48:52;7.10;99.90
2577;DHT22;1298;51.252;6.802;2023-01-30T17:51:39;7.10;99.90
2577;DHT22;1298;51.252;6.802;2023-01-30T17:54:24;7.10;99.90
2577;DHT22;1298;51.252;6.802;2023-01-30T17:57:10;7.00;99.90
2577;DHT22;1298;51.252;6.802;2023-01-30T18:00:00;7.00;99.90
2577;DHT22;1298;51.252;6.802;2023-01-30T18:02:46;7.00;99.90
2577;DHT22;1298;51.252;6.802;2023-01-30T18:05:31;7.00;99.90
2577;DHT22;1298;51.252;6.802;2023-01-30T18:08:17;6.90;99.90
2577;DHT22;1298;51.252;6.802;2023-01-30T18:11:02;6.90;99.90
2577;DHT22;1298;51.252;6.802;2023-01-30T18:13:48;6.80;99.90
2577;DHT22;1298;51.252;6.802;2023-01-30T18:16:35;6.70;99.90
2577;DHT22;1298;51.252;6.802;2023-01-30T18:19:21;6.80;99.90
2577;DHT22;1298;51.252;6.802;2023-01-30T18:22:07;6.70;99.90
2577;DHT22;1298;51.252;6.802;2023-01-30T18:24:52;6.60;99.90
2577;DHT22;1298;51.252;6.802;2023-01-30T18:27:39;6.60;99.90
2577;DHT22;1298;51.252;6.802;2023-01-30T18:30:26;6.50;99.90
2577;DHT22;1298;51.252;6.802;2023-01-30T18:33:13;6.50;99.90
2577;DHT22;1298;51.252;6.802;2023-01-30T18:35:58;6.60;99.90
2577;DHT22;1298;51.252;6.802;2023-01-30T18:38:46;6.60;99.90
2577;DHT22;1298;51.252;6.802;2023-01-30T18:41:32;6.60;99.90
2577;DHT22;1298;51.252;6.802;2023-01-30T18:44:19;6.60;99.90
2577;DHT22;1298;51.252;6.802;2023-01-30T18:47:04;6.60;99.90
2577;DHT22;1298;51.252;6.802;2023-01-30T18:49:51;6.50;99.90